Time;durP1;ratioP1;P1;durP2;ratioP2;P2;SDS_P1;SDS_P2;PMS_P1;PMS_P2;Temp;Humidity;BMP_temperature;BMP_pressure;BME280_temperature;BME280_humidity;BME280_pressure;Samples;Min_cycle;Max_cycle;Signal;HPM_P1;HPM_P2
2021/08/16 00:00:05;;;;;;;6.65;3.33;;;;;;;27.24;31.76;99722.13;5029250;28;20029;-37
2021/08/16 00:02:34;;;;;;;5.65;3.03;;;;;;;27.26;31.53;99719.09;5029793;28;20025;-38
2021/08/16 00:05:00;;;;;;;4.53;3.10;;;;;;;27.26;31.88;99711.75;5030098;28;20033;-36
2021/08/16 00:07:25;;;;;;;4.75;3.20;;;;;;;27.48;31.34;99715.50;5029956;28;20436;-36
2021/08/16 00:09:51;;;;;;;5.00;3.15;;;;;;;27.18;32.44;99717.13;5030065;28;20103;-37
2021/08/16 00:12:16;;;;;;;4.57;2.90;;;;;;;26.90;32.36;99715.41;5029985;28;20027;-37
2021/08/16 00:14:42;;;;;;;8.63;3.35;;;;;;;27.29;32.06;99711.09;5030275;28;20022;-36
2021/08/16 00:17:07;;;;;;;5.47;3.10;;;;;;;27.00;32.23;99714.31;5030087;28;20448;-36
2021/08/16 00:19:33;;;;;;;5.18;2.83;;;;;;;26.70;32.79;99715.91;5030424;28;20405;-37
2021/08/16 00:21:58;;;;;;;5.00;3.15;;;;;;;26.95;32.30;99710.91;5029922;28;20461;-37
2021/08/16 00:24:23;;;;;;;5.22;3.00;;;;;;;26.97;32.23;99706.75;5030503;28;20029;-36
2021/08/16 00:26:49;;;;;;;6.00;3.22;;;;;;;27.21;32.06;99720.03;5030126;28;20469;-37
2021/08/16 00:29:15;;;;;;;7.00;3.10;;;;;;;27.18;32.37;99706.19;5029916;28;20021;-37
2021/08/16 00:31:41;;;;;;;6.18;2.95;;;;;;;26.83;32.39;99706.84;5030231;28;20021;-37
2021/08/16 00:34:06;;;;;;;4.68;2.97;;;;;;;27.09;32.04;99711.63;5032142;28;20030;-37
2021/08/16 00:36:32;;;;;;;5.40;3.05;;;;;;;27.27;31.63;99707.88;5033811;28;20075;-37
2021/08/16 00:38:57;;;;;;;6.80;3.30;;;;;;;27.42;31.91;99709.38;5015938;28;20426;-37
2021/08/16 00:41:23;;;;;;;5.70;2.97;;;;;;;27.16;31.57;99702.97;5033526;28;20017;-35
2021/08/16 00:43:48;;;;;;;4.80;2.83;;;;;;;27.13;31.90;99701.69;5032115;28;20040;-36
2021/08/16 00:46:14;;;;;;;5.13;2.85;;;;;;;27.09;32.17;99706.16;5032132;28;20112;-36
2021/08/16 00:48:41;;;;;;;5.13;3.25;;;;;;;27.26;31.83;99702.72;5033265;28;20076;-36
2021/08/16 00:51:06;;;;;;;4.93;3.03;;;;;;;26.72;32.68;99713.69;5033280;28;20033;-36
2021/08/16 00:53:32;;;;;;;5.47;3.33;;;;;;;26.65;32.84;99708.66;5033094;28;20028;-37
2021/08/16 00:55:58;;;;;;;6.47;3.10;;;;;;;26.82;32.56;99710.69;5031794;28;20033;-36
2021/08/16 00:58:24;;;;;;;4.03;3.10;;;;;;;26.81;32.20;99697.38;5031713;28;20051;-36
2021/08/16 01:00:54;;;;;;;4.15;3.03;;;;;;;26.75;32.87;99706.78;5015412;28;20116;-36
2021/08/16 01:03:20;;;;;;;4.22;3.03;;;;;;;26.75;33.44;99704.88;5031666;28;20033;-36
2021/08/16 01:05:45;;;;;;;4.15;2.80;;;;;;;26.80;33.72;99701.19;5031686;28;20409;-37
2021/08/16 01:08:11;;;;;;;5.70;3.53;;;;;;;26.71;33.55;99701.97;5032913;28;20037;-36
2021/08/16 01:10:36;;;;;;;5.82;3.15;;;;;;;26.65;34.05;99694.22;5032741;28;20033;-36
2021/08/16 01:13:02;;;;;;;5.28;3.30;;;;;;;26.30;34.34;99704.88;5031717;28;20346;-36
2021/08/16 01:15:28;;;;;;;4.50;3.08;;;;;;;26.53;33.86;99702.94;5032873;28;20029;-36
2021/08/16 01:17:54;;;;;;;4.85;3.40;;;;;;;26.33;33.94;99696.88;5032936;28;20032;-37
2021/08/16 01:20:20;;;;;;;6.65;3.25;;;;;;;26.58;34.27;99700.09;5032493;28;20029;-36
2021/08/16 01:22:45;;;;;;;6.47;3.42;;;;;;;26.08;34.90;99705.63;5032677;28;20503;-36
2021/08/16 01:25:11;;;;;;;7.80;3.08;;;;;;;26.23;35.41;99702.56;5036854;28;20025;-36
2021/08/16 01:27:37;;;;;;;9.18;3.58;;;;;;;26.31;34.83;99699.09;5052595;28;20527;-36
2021/08/16 01:30:07;;;;;;;8.68;3.40;;;;;;;26.52;34.89;99696.69;5052539;28;20098;-37
2021/08/16 01:32:33;;;;;;;5.70;3.22;;;;;;;26.04;35.45;99697.25;5050161;28;20028;-37
2021/08/16 01:34:58;;;;;;;4.45;3.30;;;;;;;25.84;35.79;99695.00;5052375;28;20021;-36
2021/08/16 01:37:24;;;;;;;7.32;3.65;;;;;;;25.98;35.55;99694.97;5052121;28;20149;-36
2021/08/16 01:39:49;;;;;;;5.30;3.50;;;;;;;26.25;35.45;99696.78;5052589;28;20145;-36
2021/08/16 01:42:15;;;;;;;5.35;3.72;;;;;;;26.02;35.98;99691.31;5052231;28;20150;-36
2021/08/16 01:44:40;;;;;;;9.68;4.28;;;;;;;26.22;35.42;99692.78;5052034;28;20083;-36
2021/08/16 01:47:06;;;;;;;8.88;3.85;;;;;;;26.23;35.77;99694.38;5052472;28;20451;-37
2021/08/16 01:49:31;;;;;;;5.88;3.80;;;;;;;26.38;35.32;99689.69;5052085;28;20484;-36
2021/08/16 01:51:57;;;;;;;6.57;3.58;;;;;;;26.24;35.62;99681.56;5050788;28;20029;-37
2021/08/16 01:54:23;;;;;;;7.63;4.10;;;;;;;25.80;37.08;99689.34;5052079;28;20338;-37
2021/08/16 01:56:48;;;;;;;7.07;3.72;;;;;;;25.89;36.81;99683.97;5051979;28;20124;-37
2021/08/16 01:59:14;;;;;;;6.28;3.95;;;;;;;25.97;36.63;99688.72;5052203;28;20079;-37
2021/08/16 02:01:39;;;;;;;6.28;4.07;;;;;;;26.12;36.45;99685.66;5051891;28;20040;-37
2021/08/16 02:04:05;;;;;;;9.02;4.53;;;;;;;25.90;36.60;99685.59;5051937;28;20025;-36
2021/08/16 02:06:30;;;;;;;7.22;4.57;;;;;;;25.80;37.12;99683.06;5037442;28;20095;-36
2021/08/16 02:08:56;;;;;;;10.10;4.90;;;;;;;26.02;36.84;99685.06;5031652;28;20037;-36
2021/08/16 02:11:22;;;;;;;7.90;4.70;;;;;;;26.26;36.44;99687.50;5031845;28;20430;-36
2021/08/16 02:13:47;;;;;;;7.90;5.22;;;;;;;25.86;37.09;99688.13;5031632;28;20095;-36
2021/08/16 02:16:13;;;;;;;9.23;4.88;;;;;;;25.79;37.13;99687.72;5031970;28;20044;-36
2021/08/16 02:18:38;;;;;;;7.97;4.80;;;;;;;26.00;36.88;99693.53;5031674;28;20040;-37
2021/08/16 02:21:04;;;;;;;10.43;5.38;;;;;;;26.32;36.16;99699.91;5031629;28;20021;-37
2021/08/16 02:23:29;;;;;;;12.05;5.63;;;;;;;26.10;36.62;99696.06;5031663;28;20040;-37
2021/08/16 02:25:55;;;;;;;11.50;6.15;;;;;;;25.88;36.73;99690.53;5031884;28;20405;-36
2021/08/16 02:28:20;;;;;;;10.35;5.57;;;;;;;25.85;37.10;99691.13;5031499;28;20101;-38
2021/08/16 02:30:46;;;;;;;9.93;5.45;;;;;;;25.96;37.21;99700.72;5031725;28;20030;-37
2021/08/16 02:33:12;;;;;;;15.23;5.93;;;;;;;26.03;37.06;99695.66;5029972;28;20044;-36
2021/08/16 02:35:38;;;;;;;13.20;6.18;;;;;;;25.85;37.57;99697.38;5031647;28;20052;-37
2021/08/16 02:38:04;;;;;;;12.93;5.45;;;;;;;25.79;37.58;99692.38;5031275;28;20017;-37
2021/08/16 02:40:29;;;;;;;10.65;5.40;;;;;;;25.59;38.01;99694.44;5031734;28;20026;-37
2021/08/16 02:42:55;;;;;;;12.48;5.65;;;;;;;25.99;37.40;99691.94;5031529;28;20050;-37
2021/08/16 02:45:20;;;;;;;13.88;5.70;;;;;;;25.58;38.16;99690.06;5031367;28;20144;-37
2021/08/16 02:47:46;;;;;;;15.65;6.05;;;;;;;25.75;37.87;99692.19;5031407;28;20017;-36
2021/08/16 02:50:12;;;;;;;12.90;5.78;;;;;;;25.80;37.41;99692.06;5030933;28;20029;-37
2021/08/16 02:52:37;;;;;;;9.65;5.70;;;;;;;26.11;36.79;99688.69;5031656;28;20072;-38
2021/08/16 02:55:04;;;;;;;13.35;5.63;;;;;;;25.45;38.62;99696.34;5031356;28;20330;-36
2021/08/16 02:57:29;;;;;;;14.48;5.90;;;;;;;25.34;38.88;99702.00;5029179;28;20105;-36
2021/08/16 02:59:55;;;;;;;9.68;6.07;;;;;;;25.73;38.00;99695.19;5031437;28;20022;-36
2021/08/16 03:02:21;;;;;;;11.07;6.35;;;;;;;25.81;37.80;99703.78;5031382;28;20443;-37
2021/08/16 03:04:46;;;;;;;11.38;6.22;;;;;;;25.54;38.39;99702.69;5031429;28;20064;-36
2021/08/16 03:07:12;;;;;;;11.93;7.30;;;;;;;25.38;38.97;99696.78;5031100;28;20041;-37
2021/08/16 03:09:37;;;;;;;13.02;8.88;;;;;;;25.71;38.22;99699.34;5031136;28;20024;-37
2021/08/16 03:12:03;;;;;;;14.70;9.80;;;;;;;25.66;38.34;99702.97;5030996;28;20401;-36
2021/08/16 03:14:28;;;;;;;44.08;28.08;;;;;;;25.60;38.33;99706.13;5029951;28;20018;-36
2021/08/16 03:16:54;;;;;;;31.73;20.58;;;;;;;25.59;38.33;99710.78;5031113;28;20480;-37
2021/08/16 03:19:19;;;;;;;13.30;9.43;;;;;;;25.42;38.78;99713.28;5031071;28;20043;-37
2021/08/16 03:21:45;;;;;;;7.45;5.88;;;;;;;25.56;38.43;99708.66;5031335;28;20033;-36
2021/08/16 03:24:10;;;;;;;8.43;5.90;;;;;;;25.64;38.39;99699.75;5030839;28;20060;-37
2021/08/16 03:26:36;;;;;;;7.35;5.70;;;;;;;25.32;38.92;99696.06;5030747;28;20025;-37
2021/08/16 03:29:01;;;;;;;10.10;5.80;;;;;;;25.38;38.84;99696.78;5030656;28;20028;-37
2021/08/16 03:31:27;;;;;;;9.32;6.22;;;;;;;25.52;38.55;99699.47;5030056;28;20029;-40
2021/08/16 03:33:53;;;;;;;10.93;6.13;;;;;;;25.59;38.20;99697.16;5029418;28;20036;-37
2021/08/16 03:36:19;;;;;;;8.70;6.18;;;;;;;25.00;40.15;99705.09;5029638;28;20131;-37
2021/08/16 03:38:44;;;;;;;12.00;9.20;;;;;;;25.22;39.66;99712.56;5029440;28;20108;-36
2021/08/16 03:41:09;;;;;;;17.30;11.00;;;;;;;25.42;39.49;99716.00;5029231;28;20032;-37
2021/08/16 03:43:35;;;;;;;11.57;7.03;;;;;;;25.58;39.09;99709.16;5029257;28;20025;-37
2021/08/16 03:46:00;;;;;;;11.07;5.70;;;;;;;25.52;39.23;99711.16;5029419;28;20033;-36
2021/08/16 03:48:26;;;;;;;9.30;4.68;;;;;;;25.17;40.36;99709.94;5030368;28;20465;-37
2021/08/16 03:50:51;;;;;;;9.40;5.32;;;;;;;25.63;39.33;99708.25;5028649;28;20030;-40
2021/08/16 03:53:17;;;;;;;8.75;5.40;;;;;;;25.90;38.50;99721.00;5029264;28;20037;-38
2021/08/16 03:55:42;;;;;;;10.32;5.10;;;;;;;25.36;39.86;99727.03;5029553;28;20025;-36
2021/08/16 03:58:08;;;;;;;8.43;4.93;;;;;;;25.28;39.69;99724.19;5029414;28;20021;-35
2021/08/16 04:00:33;;;;;;;6.95;4.93;;;;;;;25.44;39.32;99720.06;5029567;28;20021;-37
2021/08/16 04:02:59;;;;;;;12.18;4.95;;;;;;;25.59;38.82;99720.84;5029568;28;20029;-38
2021/08/16 04:05:24;;;;;;;13.77;9.65;;;;;;;25.79;38.58;99722.34;5035083;28;20044;-35
2021/08/16 04:07:50;;;;;;;15.50;8.02;;;;;;;25.85;38.69;99729.28;5049773;28;20048;-36
2021/08/16 04:10:16;;;;;;;7.97;4.95;;;;;;;26.08;38.15;99725.56;5053523;28;20021;-37
2021/08/16 04:12:42;;;;;;;13.23;6.75;;;;;;;26.50;37.32;99725.38;5053179;28;20472;-36
2021/08/16 04:15:17;;;;;;;14.07;5.10;;;;;;;26.76;37.29;99722.84;5053534;28;20067;-39
2021/08/16 04:17:42;;;;;;;9.20;4.90;;;;;;;26.87;37.02;99720.69;5053266;28;20025;-36
2021/08/16 04:20:09;;;;;;;6.80;4.90;;;;;;;27.27;36.14;99728.94;5053023;28;20315;-36
2021/08/16 04:22:34;;;;;;;14.38;5.28;;;;;;;27.60;35.27;99729.34;5053298;28;20028;-37
2021/08/16 04:25:00;;;;;;;8.35;4.97;;;;;;;27.93;34.87;99728.97;5052984;28;20115;-37
2021/08/16 04:27:26;;;;;;;8.73;4.82;;;;;;;28.03;34.88;99727.84;5052760;28;20029;-37
2021/08/16 04:29:51;;;;;;;7.80;4.70;;;;;;;28.19;34.20;99728.16;5052911;28;20498;-38
2021/08/16 04:32:17;;;;;;;8.13;4.80;;;;;;;28.57;33.54;99727.53;5053092;28;20025;-37
2021/08/16 04:34:43;;;;;;;10.80;4.93;;;;;;;28.68;33.75;99730.75;5052828;28;20147;-37
2021/08/16 04:37:08;;;;;;;6.53;4.80;;;;;;;28.71;33.59;99725.44;5052318;28;20090;-36
2021/08/16 04:39:34;;;;;;;8.23;4.57;;;;;;;28.85;33.00;99725.22;5052405;28;20029;-37
2021/08/16 04:41:59;;;;;;;6.57;4.57;;;;;;;29.07;32.52;99729.66;5052312;28;20025;-37
2021/08/16 04:44:25;;;;;;;10.23;4.80;;;;;;;29.50;31.96;99730.63;5052668;28;20028;-37
2021/08/16 04:46:50;;;;;;;7.85;4.60;;;;;;;29.72;31.63;99733.09;5053445;28;20542;-36
2021/08/16 04:49:16;;;;;;;7.78;4.43;;;;;;;29.82;30.73;99724.50;5053097;28;20024;-37
2021/08/16 04:51:41;;;;;;;7.97;4.90;;;;;;;29.86;30.98;99737.56;5053299;28;20103;-37
2021/08/16 04:54:07;;;;;;;11.38;5.70;;;;;;;29.90;30.33;99739.28;5053146;28;20460;-37
2021/08/16 04:56:32;;;;;;;10.07;4.70;;;;;;;30.28;30.46;99729.31;5053338;28;20028;-37
2021/08/16 04:59:00;;;;;;;7.35;4.55;;;;;;;30.53;29.65;99733.78;5052625;28;20017;-36
2021/08/16 05:01:25;;;;;;;7.75;4.53;;;;;;;30.74;29.03;99744.72;5052851;28;20025;-36
2021/08/16 05:03:51;;;;;;;11.27;4.90;;;;;;;30.93;29.00;99741.47;5052224;28;20531;-37
2021/08/16 05:06:16;;;;;;;9.52;5.00;;;;;;;31.29;28.14;99747.38;5052237;28;20044;-37
2021/08/16 05:08:41;;;;;;;7.25;4.75;;;;;;;30.97;29.02;99749.84;5051729;28;20021;-37
2021/08/16 05:11:07;;;;;;;8.95;4.40;;;;;;;31.31;28.14;99758.81;5052314;28;20032;-36
2021/08/16 05:13:32;;;;;;;8.20;4.60;;;;;;;31.76;27.70;99757.94;5052126;28;20040;-36
2021/08/16 05:15:58;;;;;;;8.38;4.55;;;;;;;32.01;27.34;99752.41;5052000;28;20017;-37
2021/08/16 05:18:24;;;;;;;10.02;4.50;;;;;;;32.07;27.12;99754.56;5051669;28;20029;-37
2021/08/16 05:20:49;;;;;;;8.70;4.70;;;;;;;32.20;26.61;99760.06;5051717;28;20040;-37
2021/08/16 05:23:17;;;;;;;11.70;5.03;;;;;;;32.28;26.35;99756.34;5050621;28;20104;-38
2021/08/16 05:25:42;;;;;;;9.82;5.15;;;;;;;32.47;26.11;99751.00;5052237;28;20039;-37
2021/08/16 05:28:08;;;;;;;9.50;4.93;;;;;;;32.87;25.71;99749.34;5051701;28;20021;-37
2021/08/16 05:30:33;;;;;;;7.35;4.88;;;;;;;32.86;25.93;99750.47;5051658;28;20025;-36
2021/08/16 05:32:59;;;;;;;10.32;4.93;;;;;;;33.10;25.66;99744.84;5051498;28;20013;-37
2021/08/16 05:35:24;;;;;;;9.95;4.90;;;;;;;33.26;25.36;99744.03;5051992;28;20147;-37
2021/08/16 05:37:50;;;;;;;8.90;4.78;;;;;;;33.52;24.36;99748.22;5052024;28;20025;-38
2021/08/16 05:40:15;;;;;;;10.40;4.97;;;;;;;33.11;25.27;99737.41;5052004;28;20021;-37
2021/08/16 05:42:40;;;;;;;10.73;4.70;;;;;;;33.32;24.83;99748.16;5051613;28;20033;-37
2021/08/16 05:45:07;;;;;;;8.20;4.20;;;;;;;33.57;24.35;99751.50;5051703;28;20017;-37
2021/08/16 05:47:32;;;;;;;10.15;4.95;;;;;;;34.13;24.33;99744.06;5051167;28;20032;-38
2021/08/16 05:50:00;;;;;;;8.63;4.50;;;;;;;34.02;24.49;99757.63;5051047;28;20036;-38
2021/08/16 05:52:25;;;;;;;7.15;4.47;;;;;;;34.18;23.98;99752.09;5051307;28;20033;-38
2021/08/16 05:54:51;;;;;;;10.07;4.88;;;;;;;34.43;23.31;99750.63;5051273;28;20070;-38
2021/08/16 05:57:16;;;;;;;6.68;4.43;;;;;;;34.98;22.88;99741.41;5051581;28;20029;-38
2021/08/16 05:59:42;;;;;;;5.07;3.80;;;;;;;34.78;22.55;99751.69;5051336;28;20457;-38
2021/08/16 06:02:07;;;;;;;11.20;3.78;;;;;;;34.97;22.14;99742.56;5051429;28;20021;-38
2021/08/16 06:04:32;;;;;;;6.32;3.50;;;;;;;35.34;21.78;99748.34;5051595;28;20377;-37
2021/08/16 06:06:58;;;;;;;5.68;3.78;;;;;;;35.78;21.29;99744.28;5051340;28;20041;-37
2021/08/16 06:09:24;;;;;;;6.50;3.55;;;;;;;35.96;21.20;99742.53;5051465;28;20505;-37
2021/08/16 06:11:49;;;;;;;7.05;3.67;;;;;;;35.62;20.83;99747.16;5051341;28;20319;-37
2021/08/16 06:14:14;;;;;;;8.57;3.88;;;;;;;35.63;20.74;99741.25;5051330;28;20025;-37
2021/08/16 06:16:41;;;;;;;6.70;3.53;;;;;;;35.67;21.11;99738.56;5051526;28;20025;-37
2021/08/16 06:19:07;;;;;;;7.70;3.85;;;;;;;36.21;21.08;99739.31;5051379;28;20043;-37
2021/08/16 06:21:35;;;;;;;4.70;3.38;;;;;;;36.02;21.37;99751.31;5051504;28;20096;-37
2021/08/16 06:24:01;;;;;;;6.13;3.57;;;;;;;35.99;21.07;99747.31;5051417;28;20449;-38
2021/08/16 06:26:26;;;;;;;6.30;3.72;;;;;;;36.30;20.42;99739.81;5051148;28;20051;-37
2021/08/16 06:28:51;;;;;;;7.15;3.75;;;;;;;36.36;20.64;99743.03;5051127;28;20457;-38
2021/08/16 06:31:17;;;;;;;9.63;3.90;;;;;;;36.53;20.22;99733.34;5050315;28;20408;-38
2021/08/16 06:33:42;;;;;;;8.48;4.13;;;;;;;36.84;20.14;99739.63;5050950;28;20013;-37
2021/08/16 06:36:08;;;;;;;4.68;3.47;;;;;;;36.98;19.45;99737.78;5051069;28;20044;-37
2021/08/16 06:38:34;;;;;;;6.90;3.55;;;;;;;37.32;19.42;99734.91;5050881;28;20350;-37
2021/08/16 06:40:59;;;;;;;5.40;3.63;;;;;;;37.31;19.75;99738.84;5051342;28;20053;-37
2021/08/16 06:43:26;;;;;;;5.97;3.47;;;;;;;37.06;19.60;99735.84;5050212;28;20021;-38
2021/08/16 06:45:51;;;;;;;9.48;3.72;;;;;;;37.09;19.60;99739.84;5050932;28;20033;-38
2021/08/16 06:48:17;;;;;;;7.65;3.60;;;;;;;37.24;19.51;99738.78;5050765;28;20025;-38
2021/08/16 06:50:42;;;;;;;9.90;4.03;;;;;;;37.53;19.40;99744.56;5032979;28;20024;-38
2021/08/16 06:53:11;;;;;;;9.43;5.70;;;;;;;37.28;19.68;99731.31;5050790;28;20021;-38
2021/08/16 06:55:36;;;;;;;6.85;4.47;;;;;;;37.50;19.62;99739.78;5050656;28;20096;-38
2021/08/16 06:58:02;;;;;;;8.13;4.03;;;;;;;37.68;19.33;99737.13;5050545;28;20021;-38
2021/08/16 07:00:27;;;;;;;7.97;3.85;;;;;;;38.30;18.61;99736.25;5050757;28;20441;-39
2021/08/16 07:02:53;;;;;;;8.10;3.78;;;;;;;38.21;18.67;99733.06;5050505;28;20025;-37
2021/08/16 07:05:18;;;;;;;6.30;3.65;;;;;;;38.28;18.63;99744.97;5049400;28;20028;-38
2021/08/16 07:07:46;;;;;;;5.82;3.80;;;;;;;38.34;18.40;99745.41;5050079;28;20048;-38
2021/08/16 07:10:12;;;;;;;7.30;3.33;;;;;;;38.82;18.16;99736.00;5050606;28;20460;-39
2021/08/16 07:12:37;;;;;;;6.75;3.60;;;;;;;38.25;18.00;99739.41;5050546;28;20025;-38
2021/08/16 07:15:03;;;;;;;6.18;3.60;;;;;;;38.09;18.55;99737.78;5051430;28;20029;-38
2021/08/16 07:17:28;;;;;;;5.22;3.35;;;;;;;38.57;18.51;99741.53;5051433;28;20447;-38
2021/08/16 07:19:54;;;;;;;9.45;3.67;;;;;;;38.34;18.37;99742.63;5050215;28;20049;-38
2021/08/16 07:22:19;;;;;;;4.72;3.53;;;;;;;38.38;17.76;99740.66;5050275;28;20021;-38
2021/08/16 07:24:45;;;;;;;6.78;3.70;;;;;;;38.50;18.22;99739.50;5050301;28;20024;-38
2021/08/16 07:27:10;;;;;;;4.82;3.53;;;;;;;38.66;17.98;99737.16;5050342;28;20082;-38
2021/08/16 07:29:36;;;;;;;9.43;3.67;;;;;;;38.47;18.48;99735.50;5050251;28;20033;-38
2021/08/16 07:32:01;;;;;;;5.05;3.30;;;;;;;37.75;19.08;99726.88;5050373;28;20033;-39
2021/08/16 07:34:27;;;;;;;4.68;3.40;;;;;;;37.75;18.96;99734.41;5050188;28;20405;-38
2021/08/16 07:36:54;;;;;;;4.35;3.25;;;;;;;38.19;18.39;99727.09;5049900;28;20365;-38
2021/08/16 07:39:22;;;;;;;5.13;3.42;;;;;;;38.67;18.16;99727.66;5050208;28;20079;-37
2021/08/16 07:41:48;;;;;;;4.35;3.15;;;;;;;38.96;17.66;99730.47;5049706;28;20476;-39
2021/08/16 07:44:15;;;;;;;6.10;3.20;;;;;;;38.92;17.66;99721.31;5049959;28;20036;-37
2021/08/16 07:46:41;;;;;;;6.22;3.28;;;;;;;38.98;17.48;99719.72;5049808;28;20558;-37
2021/08/16 07:49:06;;;;;;;6.80;3.60;;;;;;;37.08;19.19;99707.75;5049820;28;20028;-38
2021/08/16 07:51:32;;;;;;;6.03;3.40;;;;;;;37.75;18.00;99715.75;5049326;28;20055;-37
2021/08/16 07:53:57;;;;;;;4.60;3.22;;;;;;;37.97;18.17;99702.00;5049330;28;20025;-37
2021/08/16 07:56:23;;;;;;;7.55;3.42;;;;;;;38.22;18.05;99712.44;5049397;28;20418;-38
2021/08/16 07:58:48;;;;;;;5.53;2.92;;;;;;;38.57;18.08;99710.94;5049327;28;20078;-38
2021/08/16 08:01:14;;;;;;;6.90;3.55;;;;;;;39.62;16.82;99706.97;5049422;28;20024;-38
2021/08/16 08:03:39;;;;;;;5.63;3.30;;;;;;;39.43;16.65;99710.97;5049166;28;20029;-38
2021/08/16 08:06:06;;;;;;;5.32;3.17;;;;;;;39.46;17.35;99712.97;5048925;28;20040;-38
2021/08/16 08:08:31;;;;;;;5.45;3.17;;;;;;;39.39;16.74;99707.41;5049262;28;20051;-38
2021/08/16 08:10:57;;;;;;;6.35;3.20;;;;;;;39.93;16.27;99704.50;5049313;28;20025;-39
2021/08/16 08:13:22;;;;;;;3.85;2.92;;;;;;;39.73;16.88;99701.38;5049088;28;20477;-38
2021/08/16 08:15:48;;;;;;;7.65;3.25;;;;;;;39.57;16.70;99699.84;5049179;28;20025;-38
2021/08/16 08:18:13;;;;;;;5.68;3.30;;;;;;;39.74;16.59;99702.94;5048104;28;20079;-38
2021/08/16 08:20:39;;;;;;;5.18;3.10;;;;;;;39.83;17.00;99704.13;5049086;28;20029;-38
2021/08/16 08:23:05;;;;;;;4.97;3.30;;;;;;;39.16;16.30;99693.91;5030687;28;20030;-38
2021/08/16 08:25:30;;;;;;;5.97;3.10;;;;;;;38.26;17.54;99702.13;5027338;28;20025;-37
2021/08/16 08:27:56;;;;;;;4.25;3.08;;;;;;;38.56;17.59;99689.88;5028376;28;20036;-38
2021/08/16 08:30:21;;;;;;;4.53;3.03;;;;;;;39.22;17.12;99684.78;5028432;28;20025;-38
2021/08/16 08:32:54;;;;;;;5.00;3.50;;;;;;;39.78;16.97;99685.03;5027866;28;20017;-38
2021/08/16 08:35:20;;;;;;;5.47;3.55;;;;;;;39.61;17.17;99695.03;5030038;28;20029;-37
2021/08/16 08:37:49;;;;;;;6.65;3.88;;;;;;;39.60;17.12;99678.75;5048377;28;20029;-38
2021/08/16 08:40:14;;;;;;;7.53;3.40;;;;;;;40.01;16.86;99676.22;5041750;28;20020;-51
2021/08/16 08:42:40;;;;;;;7.57;3.47;;;;;;;39.99;16.60;99675.84;5037722;28;20029;-52
2021/08/16 08:45:06;;;;;;;7.35;3.30;;;;;;;39.64;16.88;99671.97;5037825;28;20457;-52
2021/08/16 08:47:33;;;;;;;4.13;3.50;;;;;;;39.70;16.56;99672.34;5039160;28;20021;-50
2021/08/16 08:49:58;;;;;;;5.40;3.25;;;;;;;39.69;16.45;99670.75;5037534;28;20106;-52
2021/08/16 08:52:24;;;;;;;4.82;3.25;;;;;;;39.68;16.69;99663.63;5038278;28;20017;-53
2021/08/16 08:54:49;;;;;;;6.30;3.50;;;;;;;39.56;17.01;99664.03;5040944;28;20036;-52
2021/08/16 08:57:19;;;;;;;6.75;3.70;;;;;;;39.80;16.47;99656.81;5040687;28;20034;-52
2021/08/16 08:59:44;;;;;;;10.10;4.88;;;;;;;39.97;16.13;99660.72;5041895;28;20085;-53
2021/08/16 09:02:12;;;;;;;6.57;3.78;;;;;;;40.43;16.23;99654.09;5050906;28;20033;-53
2021/08/16 09:04:48;;;;;;;7.68;4.45;;;;;;;40.06;16.65;99653.50;5051674;28;20506;-52
2021/08/16 09:07:13;;;;;;;5.45;3.60;;;;;;;39.92;16.30;99648.00;5050666;28;20603;-52
2021/08/16 09:09:39;;;;;;;4.72;3.22;;;;;;;39.89;16.29;99646.06;5051258;28;20104;-51
2021/08/16 09:12:04;;;;;;;7.55;3.45;;;;;;;40.30;15.86;99634.25;5032594;28;20500;-51
2021/08/16 09:14:30;;;;;;;10.65;3.45;;;;;;;39.71;16.24;99645.31;5049508;28;20024;-51
2021/08/16 09:16:55;;;;;;;4.15;3.30;;;;;;;39.78;16.35;99639.72;5048587;28;20036;-53
2021/08/16 09:19:26;;;;;;;6.63;3.30;;;;;;;39.83;16.05;99639.28;5051299;28;20112;-52
2021/08/16 09:21:55;;;;;;;6.10;3.42;;;;;;;39.70;15.84;99633.38;5049766;28;20032;-52
2021/08/16 09:24:25;;;;;;;5.65;3.38;;;;;;;39.96;16.10;99631.28;5048967;28;20607;-51
2021/08/16 09:26:50;;;;;;;5.53;3.30;;;;;;;40.03;16.10;99634.03;5036945;28;20469;-53
2021/08/16 09:29:20;;;;;;;5.40;3.30;;;;;;;40.66;15.27;99631.22;5029710;28;20079;-53
2021/08/16 09:32:00;;;;;;;7.93;3.58;;;;;;;40.10;15.46;99625.63;5031054;28;20032;-52
2021/08/16 09:34:29;;;;;;;5.82;3.63;;;;;;;39.41;15.35;99633.47;5030772;28;20485;-52
2021/08/16 09:36:56;;;;;;;4.07;3.28;;;;;;;39.39;15.58;99627.47;5030711;28;20033;-52
2021/08/16 09:39:21;;;;;;;5.30;3.40;;;;;;;39.23;15.80;99611.22;5030591;28;20464;-55
2021/08/16 09:41:47;;;;;;;5.18;3.53;;;;;;;39.18;15.56;99608.84;5030675;28;20110;-52
2021/08/16 09:44:13;;;;;;;7.25;3.53;;;;;;;40.13;15.07;99601.72;5029844;28;20032;-51
2021/08/16 09:46:39;;;;;;;8.68;3.80;;;;;;;39.63;15.45;99603.56;5030605;28;20426;-52
2021/08/16 09:49:05;;;;;;;9.82;3.78;;;;;;;40.00;15.75;99595.84;5030529;28;20416;-52
2021/08/16 09:51:32;;;;;;;5.30;3.33;;;;;;;40.27;15.85;99601.66;5031072;28;20025;-53
2021/08/16 09:53:57;;;;;;;10.52;3.72;;;;;;;41.01;15.23;99591.09;5030640;28;20165;-51
2021/08/16 09:56:23;;;;;;;7.68;3.58;;;;;;;40.73;15.04;99594.91;5030753;28;20029;-51
2021/08/16 09:58:49;;;;;;;8.10;3.78;;;;;;;39.71;16.28;99590.41;5030757;28;20022;-52
2021/08/16 10:01:14;;;;;;;5.93;3.65;;;;;;;38.61;16.55;99572.78;5030869;28;20025;-52
2021/08/16 10:03:40;;;;;;;8.52;3.78;;;;;;;39.18;16.33;99588.59;5049616;28;20417;-51
2021/08/16 10:06:06;;;;;;;7.32;3.70;;;;;;;38.65;16.91;99579.13;5050435;28;20049;-50
2021/08/16 10:08:34;;;;;;;7.10;3.50;;;;;;;38.64;16.64;99577.53;5050516;28;20040;-52
2021/08/16 10:10:59;;;;;;;;;;;;;;;38.94;15.88;99573.50;5050483;28;20028;-52
2021/08/16 10:13:25;;;;;;;5.82;3.83;;;;;;;38.91;15.87;99580.69;5050712;28;19963;-49
2021/08/16 10:15:53;;;;;;;6.80;3.60;;;;;;;38.59;16.14;99567.59;5047715;28;20029;-52
2021/08/16 10:18:24;;;;;;;7.53;3.30;;;;;;;38.81;16.07;99562.03;5032525;28;20025;-51
2021/08/16 10:20:50;;;;;;;8.48;3.70;;;;;;;38.84;15.89;99561.22;5050307;28;20106;-51
2021/08/16 10:23:22;;;;;;;7.53;3.75;;;;;;;38.56;16.26;99571.19;5048800;28;20025;-51
2021/08/16 10:25:49;;;;;;;6.65;3.50;;;;;;;38.48;16.54;99562.03;5045135;28;20087;-53
2021/08/16 10:28:30;;;;;;;4.70;3.40;;;;;;;38.98;15.49;99563.19;5030077;28;20104;-53
2021/08/16 10:30:56;;;;;;;3.95;3.10;;;;;;;39.48;15.48;99551.94;5029995;28;20044;-51
2021/08/16 10:33:22;;;;;;;3.80;3.25;;;;;;;40.26;14.36;99552.69;5029995;28;20052;-51
2021/08/16 10:35:48;;;;;;;4.20;3.03;;;;;;;39.65;15.20;99548.28;5029753;28;20442;-52
2021/08/16 10:38:14;;;;;;;7.10;3.15;;;;;;;39.20;14.99;99550.03;5030256;28;20108;-52
2021/08/16 10:40:41;;;;;;;6.93;3.50;;;;;;;38.71;15.35;99550.53;5029863;28;20094;-50
2021/08/16 10:43:11;;;;;;;4.60;3.42;;;;;;;39.23;15.16;99541.69;5029716;28;20426;-51
2021/08/16 10:45:57;;;;;;;5.80;3.13;;;;;;;39.38;14.85;99541.63;5029544;28;20036;-50
2021/08/16 10:48:26;;;;;;;3.78;3.20;;;;;;;39.10;15.35;99529.41;5029326;28;20120;-53
2021/08/16 10:51:08;;;;;;;4.60;3.10;;;;;;;39.16;15.58;99533.34;5030075;28;20259;-49
2021/08/16 10:53:53;;;;;;;7.05;3.20;;;;;;;40.25;15.27;99531.56;5030162;28;20404;-52
2021/08/16 10:56:23;;;;;;;4.88;3.30;;;;;;;40.29;15.11;99529.59;5029648;28;20122;-52
2021/08/16 10:58:49;;;;;;;5.80;2.92;;;;;;;40.48;14.23;99527.44;5029496;28;20365;-50
2021/08/16 11:01:31;;;;;;;5.30;3.05;;;;;;;40.90;13.72;99515.09;5029378;28;20134;-52
2021/08/16 11:04:01;;;;;;;4.45;3.30;;;;;;;40.68;13.86;99508.91;5029337;28;20029;-54
2021/08/16 11:06:27;;;;;;;6.28;3.13;;;;;;;40.52;13.91;99517.84;5029399;28;20050;-51
2021/08/16 11:08:59;;;;;;;7.20;3.20;;;;;;;40.29;14.38;99506.47;5028972;28;20095;-51
2021/08/16 11:11:25;;;;;;;4.65;3.10;;;;;;;40.67;13.56;99500.97;5029328;28;20032;-52
2021/08/16 11:14:08;;;;;;;5.25;3.05;;;;;;;41.40;13.65;99502.56;5029155;28;20178;-51
2021/08/16 11:16:33;;;;;;;4.70;2.90;;;;;;;41.73;12.85;99491.75;5027374;28;20036;-52
2021/08/16 11:18:59;;;;;;;4.82;2.60;;;;;;;40.02;13.14;99490.38;5029237;28;20029;-53
2021/08/16 11:21:26;;;;;;;4.30;3.05;;;;;;;39.12;13.22;99487.28;5029182;28;20098;-52
2021/08/16 11:23:56;;;;;;;4.05;2.95;;;;;;;39.29;12.75;99492.75;5029095;28;20037;-52
2021/08/16 11:26:21;;;;;;;4.45;2.90;;;;;;;39.84;13.04;99482.91;5038798;28;20032;-52